Time;durP1;ratioP1;P1;durP2;ratioP2;P2;SDS_P1;SDS_P2;PMS_P1;PMS_P2;Temp;Humidity;BMP_temperature;BMP_pressure;BME280_temperature;BME280_humidity;BME280_pressure;Samples;Min_cycle;Max_cycle;Signal;HPM_P1;HPM_P2
2023/09/04 00:01:27;;;;;;;0.00;0.00;;;;;;;;;;5117533;28;20031;-82
2023/09/04 00:03:52;;;;;;;0.00;0.00;;;;;;;;;;5118174;28;20127;-81
2023/09/04 00:06:18;;;;;;;0.00;0.00;;;;;;;;;;5117537;28;20046;-81
2023/09/04 00:08:43;;;;;;;0.00;0.00;;;;;;;;;;5116610;28;20054;-81
2023/09/04 00:11:08;;;;;;;0.00;0.00;;;;;;;;;;5116169;28;20034;-82
2023/09/04 00:13:36;;;;;;;0.00;0.00;;;;;;;;;;5117486;28;20019;-81
2023/09/04 00:16:01;;;;;;;0.00;0.00;;;;;;;;;;5116297;28;20050;-81
2023/09/04 00:18:27;;;;;;;0.00;0.00;;;;;;;;;;5116105;28;20019;-81
2023/09/04 00:20:52;;;;;;;0.00;0.00;;;;;;;;;;5099187;28;20030;-81
2023/09/04 00:23:18;;;;;;;0.00;0.00;;;;;;;;;;5099269;28;20072;-82
2023/09/04 00:25:44;;;;;;;0.00;0.00;;;;;;;;;;5116201;28;20118;-82
2023/09/04 00:28:09;;;;;;;0.00;0.00;;;;;;;;;;5098768;28;20020;-81
2023/09/04 00:30:34;;;;;;;0.00;0.00;;;;;;;;;;5098628;28;20116;-81
2023/09/04 00:33:00;;;;;;;0.00;0.00;;;;;;;;;;5117059;28;20039;-81
2023/09/04 00:35:25;;;;;;;0.00;0.00;;;;;;;;;;5117257;28;20024;-82
2023/09/04 00:37:51;;;;;;;0.00;0.00;;;;;;;;;;5115684;28;20034;-81
2023/09/04 00:40:16;;;;;;;0.00;0.00;;;;;;;;;;5117049;28;20031;-81
2023/09/04 00:42:42;;;;;;;0.00;0.00;;;;;;;;;;5115381;28;20457;-81
2023/09/04 00:45:11;;;;;;;0.00;0.00;;;;;;;;;;5115755;28;20343;-81
2023/09/04 00:47:37;;;;;;;0.00;0.00;;;;;;;;;;5116971;28;20031;-81
2023/09/04 00:50:03;;;;;;;0.00;0.00;;;;;;;;;;5115473;28;20285;-81
2023/09/04 00:52:28;;;;;;;0.00;0.00;;;;;;;;;;5098402;28;20119;-81
2023/09/04 00:54:54;;;;;;;0.00;0.00;;;;;;;;;;5115401;28;20031;-81
2023/09/04 00:57:19;;;;;;;0.00;0.00;;;;;;;;;;5116910;28;20445;-81
2023/09/04 00:59:45;;;;;;;0.00;0.00;;;;;;;;;;5115256;28;20389;-80
2023/09/04 01:02:11;;;;;;;0.00;0.00;;;;;;;;;;5115925;28;20365;-81
2023/09/04 01:04:36;;;;;;;0.00;0.00;;;;;;;;;;5115145;28;20108;-81
2023/09/04 01:07:02;;;;;;;0.00;0.00;;;;;;;;;;5116319;28;20050;-81
2023/09/04 01:09:27;;;;;;;0.00;0.00;;;;;;;;;;5116283;28;20172;-81
2023/09/04 01:11:59;;;;;;;0.00;0.00;;;;;;;;;;5114707;28;20039;-81
2023/09/04 01:14:24;;;;;;;0.00;0.00;;;;;;;;;;5115047;28;20024;-82
2023/09/04 01:16:50;;;;;;;0.00;0.00;;;;;;;;;;5081328;28;20472;-81
2023/09/04 01:19:17;;;;;;;0.00;0.00;;;;;;;;;;5097892;28;20031;-81
2023/09/04 01:21:42;;;;;;;0.00;0.00;;;;;;;;;;5116124;28;20032;-81
2023/09/04 01:24:08;;;;;;;0.00;0.00;;;;;;;;;;5097670;28;20042;-81
2023/09/04 01:26:40;;;;;;;0.00;0.00;;;;;;;;;;5115788;28;20036;-81
2023/09/04 01:29:24;;;;;;;0.00;0.00;;;;;;;;;;5115680;28;20556;-81
2023/09/04 01:32:14;;;;;;;0.00;0.00;;;;;;;;;;5115676;28;20132;-81
2023/09/04 01:34:42;;;;;;;0.00;0.00;;;;;;;;;;5099900;28;20044;-81
2023/09/04 01:37:07;;;;;;;0.00;0.00;;;;;;;;;;5097486;28;20086;-81
2023/09/04 01:39:33;;;;;;;0.00;0.00;;;;;;;;;;5097430;28;20411;-81
2023/09/04 01:41:58;;;;;;;0.00;0.00;;;;;;;;;;5097201;28;20031;-81
2023/09/04 01:44:24;;;;;;;0.00;0.00;;;;;;;;;;5115628;28;20031;-81
2023/09/04 01:46:50;;;;;;;0.00;0.00;;;;;;;;;;5097590;28;20409;-81
2023/09/04 01:49:15;;;;;;;0.00;0.00;;;;;;;;;;5114396;28;20041;-81
2023/09/04 01:51:41;;;;;;;0.00;0.00;;;;;;;;;;5115615;28;20031;-81
2023/09/04 01:54:07;;;;;;;0.00;0.00;;;;;;;;;;5114734;28;20338;-81
2023/09/04 01:56:33;;;;;;;0.00;0.00;;;;;;;;;;5114163;28;20031;-81
2023/09/04 01:58:58;;;;;;;0.00;0.00;;;;;;;;;;5114286;28;20032;-80
2023/09/04 02:01:24;;;;;;;0.00;0.00;;;;;;;;;;5115579;28;20044;-81
2023/09/04 02:03:54;;;;;;;0.00;0.00;;;;;;;;;;5096992;28;20130;-81
2023/09/04 02:06:20;;;;;;;0.00;0.00;;;;;;;;;;5115655;28;20076;-81
2023/09/04 02:08:45;;;;;;;0.00;0.00;;;;;;;;;;5113889;28;20027;-80
2023/09/04 02:11:10;;;;;;;0.00;0.00;;;;;;;;;;5114770;28;20027;-81
2023/09/04 02:13:36;;;;;;;0.00;0.00;;;;;;;;;;5096225;28;20032;-80
2023/09/04 02:16:02;;;;;;;0.00;0.00;;;;;;;;;;5114964;28;20034;-80
2023/09/04 02:18:27;;;;;;;0.00;0.00;;;;;;;;;;5113851;28;20020;-81
2023/09/04 02:20:53;;;;;;;0.00;0.00;;;;;;;;;;5096552;28;20053;-80
2023/09/04 02:23:18;;;;;;;0.00;0.00;;;;;;;;;;5114024;28;20028;-80
2023/09/04 02:25:46;;;;;;;0.00;0.00;;;;;;;;;;5113496;28;20027;-81
2023/09/04 02:28:12;;;;;;;0.00;0.00;;;;;;;;;;5113783;28;20115;-81
2023/09/04 02:30:38;;;;;;;0.00;0.00;;;;;;;;;;5113316;28;20451;-81
2023/09/04 02:33:04;;;;;;;0.00;0.00;;;;;;;;;;5096673;28;20464;-81
2023/09/04 02:35:29;;;;;;;0.00;0.00;;;;;;;;;;5148027;27;20024;-81
2023/09/04 02:37:55;;;;;;;0.00;0.00;;;;;;;;;;5096401;28;20100;-81
2023/09/04 02:40:20;;;;;;;0.00;0.00;;;;;;;;;;5113307;28;20647;-81
2023/09/04 02:42:46;;;;;;;0.00;0.00;;;;;;;;;;5079665;28;20038;-80
2023/09/04 02:45:11;;;;;;;0.00;0.00;;;;;;;;;;5113527;28;20350;-81
2023/09/04 02:47:37;;;;;;;0.00;0.00;;;;;;;;;;5114564;28;20015;-81
2023/09/04 02:50:05;;;;;;;0.00;0.00;;;;;;;;;;5114371;28;20444;-81
2023/09/04 02:52:31;;;;;;;0.00;0.00;;;;;;;;;;5113398;28;20027;-81
2023/09/04 02:54:57;;;;;;;0.00;0.00;;;;;;;;;;5096303;28;20023;-81
2023/09/04 02:57:23;;;;;;;0.00;0.00;;;;;;;;;;5113461;28;20028;-81
2023/09/04 02:59:48;;;;;;;0.00;0.00;;;;;;;;;;5096660;28;20030;-81
2023/09/04 03:02:14;;;;;;;0.00;0.00;;;;;;;;;;5114384;28;20070;-81
2023/09/04 03:04:40;;;;;;;0.00;0.00;;;;;;;;;;5101619;28;20043;-81
2023/09/04 03:07:05;;;;;;;0.00;0.00;;;;;;;;;;5114796;28;20476;-81
2023/09/04 03:09:31;;;;;;;0.00;0.00;;;;;;;;;;5113571;28;20047;-80
2023/09/04 03:12:01;;;;;;;0.00;0.00;;;;;;;;;;5115386;28;20031;-80
2023/09/04 03:14:26;;;;;;;0.00;0.00;;;;;;;;;;5080197;28;20035;-81
2023/09/04 03:16:52;;;;;;;0.00;0.00;;;;;;;;;;5114485;28;20418;-80
2023/09/04 03:19:17;;;;;;;0.00;0.00;;;;;;;;;;5113240;28;20020;-81
2023/09/04 03:21:43;;;;;;;0.00;0.00;;;;;;;;;;5112827;28;20032;-81
2023/09/04 03:24:08;;;;;;;0.00;0.00;;;;;;;;;;5113878;28;20372;-81
2023/09/04 03:26:33;;;;;;;0.00;0.00;;;;;;;;;;5100193;28;20071;-81
2023/09/04 03:28:59;;;;;;;0.00;0.00;;;;;;;;;;5116994;28;20051;-81
2023/09/04 03:31:25;;;;;;;0.00;0.00;;;;;;;;;;5117997;28;20074;-80
2023/09/04 03:33:53;;;;;;;0.00;0.00;;;;;;;;;;5099943;28;20027;-80
2023/09/04 03:36:18;;;;;;;0.00;0.00;;;;;;;;;;5116525;28;20026;-81
2023/09/04 03:38:44;;;;;;;0.00;0.00;;;;;;;;;;5083229;28;20367;-81
2023/09/04 03:41:09;;;;;;;0.00;0.00;;;;;;;;;;5116937;28;20031;-80
2023/09/04 03:43:35;;;;;;;0.00;0.00;;;;;;;;;;5116736;28;20026;-81
2023/09/04 03:46:00;;;;;;;0.00;0.00;;;;;;;;;;5116849;28;20096;-81
2023/09/04 03:48:26;;;;;;;0.00;0.00;;;;;;;;;;5116914;28;20125;-82
2023/09/04 03:50:52;;;;;;;0.00;0.00;;;;;;;;;;5099374;28;20388;-80
2023/09/04 03:53:17;;;;;;;0.00;0.00;;;;;;;;;;5099223;28;20039;-80
2023/09/04 03:55:42;;;;;;;0.00;0.00;;;;;;;;;;5117707;28;20024;-80
2023/09/04 03:58:08;;;;;;;0.00;0.00;;;;;;;;;;5099690;28;20023;-81
2023/09/04 04:00:33;;;;;;;0.00;0.00;;;;;;;;;;5116596;28;20031;-80
2023/09/04 04:03:00;;;;;;;0.00;0.00;;;;;;;;;;5099345;28;20039;-81
2023/09/04 04:05:26;;;;;;;0.00;0.00;;;;;;;;;;5116532;28;20020;-80
2023/09/04 04:07:52;;;;;;;0.00;0.00;;;;;;;;;;5099550;28;20127;-82
2023/09/04 04:10:18;;;;;;;0.00;0.00;;;;;;;;;;5099343;28;20093;-81
2023/09/04 04:12:43;;;;;;;0.00;0.00;;;;;;;;;;5082615;28;20035;-81
2023/09/04 04:15:10;;;;;;;0.00;0.00;;;;;;;;;;5117621;28;20035;-81
2023/09/04 04:17:35;;;;;;;0.00;0.00;;;;;;;;;;5116173;28;20118;-81
2023/09/04 04:20:03;;;;;;;0.00;0.00;;;;;;;;;;5082018;28;20434;-82
2023/09/04 04:22:28;;;;;;;0.00;0.00;;;;;;;;;;5116208;28;20429;-80
2023/09/04 04:24:54;;;;;;;0.00;0.00;;;;;;;;;;5117212;28;20031;-81
2023/09/04 04:27:19;;;;;;;0.00;0.00;;;;;;;;;;5117663;28;20031;-81
2023/09/04 04:29:46;;;;;;;0.00;0.00;;;;;;;;;;5116999;28;20055;-81
2023/09/04 04:32:11;;;;;;;0.00;0.00;;;;;;;;;;5116066;28;20023;-81
2023/09/04 04:34:36;;;;;;;0.00;0.00;;;;;;;;;;5115467;28;20071;-81
2023/09/04 04:37:04;;;;;;;0.00;0.00;;;;;;;;;;5115864;28;20453;-82
2023/09/04 04:39:29;;;;;;;0.00;0.00;;;;;;;;;;5115876;28;20031;-81
2023/09/04 04:41:54;;;;;;;0.00;0.00;;;;;;;;;;5116881;28;20028;-81
2023/09/04 04:44:20;;;;;;;0.00;0.00;;;;;;;;;;5081877;28;20441;-81
2023/09/04 04:46:48;;;;;;;0.00;0.00;;;;;;;;;;5116928;28;20035;-80
2023/09/04 04:49:18;;;;;;;0.00;0.00;;;;;;;;;;5115385;28;20024;-82
2023/09/04 04:51:44;;;;;;;0.00;0.00;;;;;;;;;;5115477;28;20092;-80
2023/09/04 04:54:10;;;;;;;0.00;0.00;;;;;;;;;;5115638;28;20036;-81
2023/09/04 04:56:35;;;;;;;0.00;0.00;;;;;;;;;;5098438;28;20028;-81
2023/09/04 04:59:01;;;;;;;0.00;0.00;;;;;;;;;;5098985;28;20024;-81
2023/09/04 05:01:26;;;;;;;0.00;0.00;;;;;;;;;;5115343;28;20024;-79
2023/09/04 05:03:51;;;;;;;0.00;0.00;;;;;;;;;;5114946;28;20437;-79
2023/09/04 05:06:17;;;;;;;0.00;0.00;;;;;;;;;;5115102;28;20471;-80
2023/09/04 05:08:42;;;;;;;0.00;0.00;;;;;;;;;;5117037;28;20023;-79
2023/09/04 05:11:08;;;;;;;0.00;0.00;;;;;;;;;;5097912;28;20433;-79
2023/09/04 05:13:33;;;;;;;0.00;0.00;;;;;;;;;;5115381;28;20023;-80
2023/09/04 05:16:05;;;;;;;0.00;0.00;;;;;;;;;;5097827;28;20476;-79
2023/09/04 05:18:31;;;;;;;0.00;0.00;;;;;;;;;;5082533;28;20528;-79
2023/09/04 05:20:56;;;;;;;0.00;0.00;;;;;;;;;;5114775;28;20457;-79
2023/09/04 05:23:22;;;;;;;0.00;0.00;;;;;;;;;;5115365;28;20030;-79
2023/09/04 05:25:48;;;;;;;0.00;0.00;;;;;;;;;;5097701;28;20043;-80
2023/09/04 05:28:14;;;;;;;0.00;0.00;;;;;;;;;;5114534;28;20035;-79
2023/09/04 05:30:40;;;;;;;0.00;0.00;;;;;;;;;;5104848;28;20078;-87
2023/09/04 05:33:06;;;;;;;0.00;0.00;;;;;;;;;;5121408;28;20047;-87
2023/09/04 05:35:31;;;;;;;0.00;0.00;;;;;;;;;;5127501;28;20028;-88
2023/09/04 05:38:15;;;;;;;0.00;0.00;;;;;;;;;;5127285;28;20044;-88
2023/09/04 05:40:41;;;;;;;0.00;0.00;;;;;;;;;;5123504;28;20101;-88
2023/09/04 05:43:06;;;;;;;0.00;0.00;;;;;;;;;;5104986;28;20440;-87
2023/09/04 05:45:32;;;;;;;0.00;0.00;;;;;;;;;;5122211;28;20138;-88
2023/09/04 05:47:57;;;;;;;0.00;0.00;;;;;;;;;;5118276;28;20027;-86
2023/09/04 05:50:22;;;;;;;0.00;0.00;;;;;;;;;;5100543;28;20035;-84
2023/09/04 05:52:48;;;;;;;0.00;0.00;;;;;;;;;;5114452;28;20034;-82
2023/09/04 05:55:13;;;;;;;0.00;0.00;;;;;;;;;;5097476;28;20031;-84
2023/09/04 05:57:39;;;;;;;0.00;0.00;;;;;;;;;;5097051;28;20038;-82
2023/09/04 06:00:16;;;;;;;0.00;0.00;;;;;;;;;;5115138;28;20030;-84
2023/09/04 06:02:41;;;;;;;0.00;0.00;;;;;;;;;;5098925;28;20027;-86
2023/09/04 06:05:07;;;;;;;0.00;0.00;;;;;;;;;;5114459;28;20042;-86
2023/09/04 06:07:34;;;;;;;0.00;0.00;;;;;;;;;;5115465;28;20024;-84
2023/09/04 06:09:59;;;;;;;0.00;0.00;;;;;;;;;;5115051;28;20034;-84
2023/09/04 06:12:25;;;;;;;0.00;0.00;;;;;;;;;;5096966;28;20027;-86
2023/09/04 06:14:50;;;;;;;0.00;0.00;;;;;;;;;;5114151;28;20062;-86
2023/09/04 06:17:16;;;;;;;0.00;0.00;;;;;;;;;;5113718;28;20030;-87
2023/09/04 06:19:41;;;;;;;0.00;0.00;;;;;;;;;;5098446;28;20035;-87
2023/09/04 06:22:07;;;;;;;0.00;0.00;;;;;;;;;;5097496;28;20039;-88
2023/09/04 06:24:32;;;;;;;0.00;0.00;;;;;;;;;;5115172;28;20044;-83
2023/09/04 06:26:58;;;;;;;0.00;0.00;;;;;;;;;;5113952;28;20019;-84
2023/09/04 06:29:23;;;;;;;0.00;0.00;;;;;;;;;;5115209;28;20035;-84
2023/09/04 06:31:48;;;;;;;0.00;0.00;;;;;;;;;;5114604;28;20357;-84
2023/09/04 06:34:14;;;;;;;0.00;0.00;;;;;;;;;;5079386;28;20515;-83
2023/09/04 06:36:39;;;;;;;0.00;0.00;;;;;;;;;;5113323;28;20028;-83
2023/09/04 06:39:06;;;;;;;0.00;0.00;;;;;;;;;;5113645;28;20023;-83
2023/09/04 06:41:32;;;;;;;0.00;0.00;;;;;;;;;;5112886;28;20039;-82
2023/09/04 06:43:58;;;;;;;0.00;0.00;;;;;;;;;;5113383;28;20070;-84
2023/09/04 06:46:23;;;;;;;0.00;0.00;;;;;;;;;;5113175;28;20409;-85
2023/09/04 06:48:49;;;;;;;0.00;0.00;;;;;;;;;;5096326;28;20386;-84
2023/09/04 06:51:16;;;;;;;0.00;0.00;;;;;;;;;;5115064;28;20409;-83
2023/09/04 06:53:41;;;;;;;0.00;0.00;;;;;;;;;;5111293;28;20027;-82
2023/09/04 06:56:07;;;;;;;0.00;0.00;;;;;;;;;;5112502;28;20559;-85
2023/09/04 06:58:32;;;;;;;0.00;0.00;;;;;;;;;;5098546;28;20020;-85
2023/09/04 07:00:58;;;;;;;0.00;0.00;;;;;;;;;;5124387;28;20027;-84
2023/09/04 07:03:24;;;;;;;0.00;0.00;;;;;;;;;;5103058;28;20039;-85
2023/09/04 07:05:49;;;;;;;0.00;0.00;;;;;;;;;;5103122;28;20027;-87
2023/09/04 07:08:15;;;;;;;0.00;0.00;;;;;;;;;;5121168;27;20032;-86
2023/09/04 07:10:40;;;;;;;0.00;0.00;;;;;;;;;;5120377;27;20035;-83
2023/09/04 07:13:06;;;;;;;0.00;0.00;;;;;;;;;;5120848;28;20334;-85
2023/09/04 07:15:31;;;;;;;0.00;0.00;;;;;;;;;;5108352;28;20051;-81
2023/09/04 07:17:59;;;;;;;0.00;0.00;;;;;;;;;;5128959;27;20035;-80
2023/09/04 07:20:25;;;;;;;0.00;0.00;;;;;;;;;;5107822;28;20032;-82
2023/09/04 07:22:50;;;;;;;0.00;0.00;;;;;;;;;;5125319;27;20030;-79
2023/09/04 07:25:16;;;;;;;0.00;0.00;;;;;;;;;;5134664;27;20424;-79
2023/09/04 07:27:42;;;;;;;0.00;0.00;;;;;;;;;;5108211;28;20039;-80
2023/09/04 07:30:08;;;;;;;0.00;0.00;;;;;;;;;;5127762;28;20043;-79
2023/09/04 07:32:34;;;;;;;0.00;0.00;;;;;;;;;;5125174;28;20516;-80
2023/09/04 07:34:59;;;;;;;0.00;0.00;;;;;;;;;;5106762;28;20070;-79
2023/09/04 07:37:26;;;;;;;0.00;0.00;;;;;;;;;;5107791;28;20035;-85
2023/09/04 07:39:52;;;;;;;0.00;0.00;;;;;;;;;;5126407;28;20091;-82
2023/09/04 07:42:18;;;;;;;0.00;0.00;;;;;;;;;;5091914;28;20035;-81
2023/09/04 07:44:43;;;;;;;0.00;0.00;;;;;;;;;;5108379;28;20118;-81
2023/09/04 07:47:09;;;;;;;0.00;0.00;;;;;;;;;;5093340;28;20053;-90
2023/09/04 07:49:34;;;;;;;0.00;0.00;;;;;;;;;;5112026;28;20066;-85
2023/09/04 07:52:00;;;;;;;0.00;0.00;;;;;;;;;;5124618;28;20066;-84
2023/09/04 07:54:26;;;;;;;0.00;0.00;;;;;;;;;;5090708;28;20076;-86
2023/09/04 07:56:54;;;;;;;0.00;0.00;;;;;;;;;;5109278;28;20023;-86
2023/09/04 07:59:19;;;;;;;0.00;0.00;;;;;;;;;;5125534;28;20091;-83
2023/09/04 08:01:45;;;;;;;0.00;0.00;;;;;;;;;;5125418;28;20070;-88
2023/09/04 08:04:13;;;;;;;0.00;0.00;;;;;;;;;;5110427;28;20126;-86
2023/09/04 08:06:38;;;;;;;0.00;0.00;;;;;;;;;;5110546;28;20028;-85
2023/09/04 08:09:04;;;;;;;0.00;0.00;;;;;;;;;;5112708;28;20034;-85
2023/09/04 08:11:30;;;;;;;0.00;0.00;;;;;;;;;;5128594;28;20038;-86
2023/09/04 08:13:58;;;;;;;0.00;0.00;;;;;;;;;;5108186;28;20019;-87
2023/09/04 08:16:24;;;;;;;0.00;0.00;;;;;;;;;;5125851;28;20035;-86
2023/09/04 08:18:49;;;;;;;0.00;0.00;;;;;;;;;;5124743;28;20027;-85
2023/09/04 08:21:15;;;;;;;0.00;0.00;;;;;;;;;;5125582;28;20445;-85
2023/09/04 08:23:40;;;;;;;0.00;0.00;;;;;;;;;;5124445;28;20023;-85
2023/09/04 08:26:06;;;;;;;0.00;0.00;;;;;;;;;;5125925;28;20039;-86
2023/09/04 08:28:32;;;;;;;0.00;0.00;;;;;;;;;;5125308;28;20030;-86
2023/09/04 08:31:01;;;;;;;0.00;0.00;;;;;;;;;;5109137;28;20030;-87
2023/09/04 08:33:27;;;;;;;0.00;0.00;;;;;;;;;;5109026;28;20049;-86
2023/09/04 08:35:52;;;;;;;0.00;0.00;;;;;;;;;;5091141;28;20024;-85
2023/09/04 08:38:18;;;;;;;0.00;0.00;;;;;;;;;;5106496;28;20122;-85
2023/09/04 08:40:43;;;;;;;0.00;0.00;;;;;;;;;;5122994;28;20046;-83
2023/09/04 08:43:12;;;;;;;0.00;0.00;;;;;;;;;;5125718;28;20412;-89
2023/09/04 08:45:40;;;;;;;0.00;0.00;;;;;;;;;;5127844;28;20035;-86
2023/09/04 08:48:05;;;;;;;0.00;0.00;;;;;;;;;;5106742;28;20051;-84
2023/09/04 08:50:49;;;;;;;0.00;0.00;;;;;;;;;;5106391;28;20089;-84
2023/09/04 08:53:16;;;;;;;0.00;0.00;;;;;;;;;;5124290;28;20023;-86
2023/09/04 08:55:41;;;;;;;0.20;0.00;;;;;;;;;;5107835;28;20024;-85
2023/09/04 08:58:07;;;;;;;0.00;0.00;;;;;;;;;;5106027;28;20115;-92
2023/09/04 09:00:33;;;;;;;0.00;0.00;;;;;;;;;;5110029;28;20035;-90
2023/09/04 09:02:59;;;;;;;0.00;0.00;;;;;;;;;;5093380;28;20034;-90
2023/09/04 09:05:24;;;;;;;0.00;0.00;;;;;;;;;;5122001;28;20031;-88
2023/09/04 09:07:50;;;;;;;0.00;0.00;;;;;;;;;;5122884;28;20035;-87
2023/09/04 09:10:18;;;;;;;0.00;0.00;;;;;;;;;;5121119;28;20042;-84
2023/09/04 09:12:44;;;;;;;0.00;0.00;;;;;;;;;;5123079;28;20027;-89
2023/09/04 09:15:10;;;;;;;0.00;0.00;;;;;;;;;;5124858;28;20030;-85
2023/09/04 09:17:37;;;;;;;0.00;0.00;;;;;;;;;;5123078;28;20032;-86
2023/09/04 09:20:02;;;;;;;0.00;0.00;;;;;;;;;;5104665;28;20024;-87
2023/09/04 09:22:28;;;;;;;0.00;0.00;;;;;;;;;;5121194;28;20030;-85
2023/09/04 09:25:00;;;;;;;0.00;0.00;;;;;;;;;;5120660;28;20080;-86
2023/09/04 09:27:32;;;;;;;0.00;0.00;;;;;;;;;;5140036;27;20466;-86
2023/09/04 09:29:59;;;;;;;0.00;0.00;;;;;;;;;;5146172;27;20043;-83
2023/09/04 09:32:35;;;;;;;0.00;0.00;;;;;;;;;;5127904;27;20126;-84
2023/09/04 09:35:01;;;;;;;0.00;0.00;;;;;;;;;;5125234;28;20019;-86
2023/09/04 09:37:30;;;;;;;0.00;0.00;;;;;;;;;;5122965;28;20031;-85
2023/09/04 09:39:56;;;;;;;0.00;0.00;;;;;;;;;;5105846;28;20027;-85
2023/09/04 09:42:23;;;;;;;0.00;0.00;;;;;;;;;;5121771;28;20087;-86
2023/09/04 09:44:50;;;;;;;0.00;0.00;;;;;;;;;;5104502;28;20369;-85
2023/09/04 09:47:16;;;;;;;0.00;0.00;;;;;;;;;;5121546;28;20027;-87
2023/09/04 09:49:42;;;;;;;0.00;0.00;;;;;;;;;;5103928;28;20024;-83
2023/09/04 09:52:11;;;;;;;0.00;0.00;;;;;;;;;;5090068;28;20078;-83
2023/09/04 09:54:40;;;;;;;0.00;0.00;;;;;;;;;;5107008;28;20024;-86
2023/09/04 09:57:12;;;;;;;0.00;0.00;;;;;;;;;;5105552;28;20036;-85
2023/09/04 09:59:45;;;;;;;0.00;0.00;;;;;;;;;;5089682;28;20527;-81
2023/09/04 10:02:20;;;;;;;0.00;0.00;;;;;;;;;;5104494;28;20099;-83
2023/09/04 10:04:50;;;;;;;0.00;0.00;;;;;;;;;;5088372;28;20035;-85
2023/09/04 10:07:26;;;;;;;0.00;0.00;;;;;;;;;;5121436;28;20020;-85
2023/09/04 10:09:59;;;;;;;0.00;0.00;;;;;;;;;;5105471;28;20032;-88
2023/09/04 10:12:42;;;;;;;0.00;0.00;;;;;;;;;;5087604;28;20089;-89
2023/09/04 10:15:08;;;;;;;0.00;0.00;;;;;;;;;;5135785;27;20054;-87
2023/09/04 10:17:40;;;;;;;0.00;0.00;;;;;;;;;;5118126;28;20028;-86
2023/09/04 10:20:06;;;;;;;0.00;0.00;;;;;;;;;;5119843;27;20032;-85
2023/09/04 10:22:37;;;;;;;0.00;0.00;;;;;;;;;;5120033;28;20396;-84
2023/09/04 10:25:09;;;;;;;0.00;0.00;;;;;;;;;;5118966;28;20126;-88
2023/09/04 10:27:38;;;;;;;0.00;0.00;;;;;;;;;;5101440;28;20422;-84
2023/09/04 10:30:07;;;;;;;0.00;0.00;;;;;;;;;;5102231;28;20114;-88
2023/09/04 10:32:36;;;;;;;0.00;0.00;;;;;;;;;;5101893;28;20032;-86
2023/09/04 10:35:01;;;;;;;0.00;0.00;;;;;;;;;;5101555;28;20036;-86
2023/09/04 10:37:29;;;;;;;0.00;0.00;;;;;;;;;;5082476;28;20042;-81
2023/09/04 10:39:55;;;;;;;0.00;0.00;;;;;;;;;;5081692;28;20036;-80
2023/09/04 10:42:23;;;;;;;0.00;0.00;;;;;;;;;;5081336;28;20042;-80
2023/09/04 10:44:51;;;;;;;0.00;0.00;;;;;;;;;;5116010;28;20027;-85
2023/09/04 10:47:17;;;;;;;0.00;0.00;;;;;;;;;;5100758;28;20039;-86
2023/09/04 10:49:44;;;;;;;0.00;0.00;;;;;;;;;;5102469;28;20028;-88
2023/09/04 10:52:11;;;;;;;0.00;0.00;;;;;;;;;;5117595;28;20024;-88
2023/09/04 10:54:37;;;;;;;0.00;0.00;;;;;;;;;;5100482;28;20032;-87
2023/09/04 10:57:07;;;;;;;0.00;0.00;;;;;;;;;;5100618;28;20032;-87
2023/09/04 10:59:55;;;;;;;0.00;0.00;;;;;;;;;;5116990;28;20028;-87
2023/09/04 11:02:41;;;;;;;0.00;0.00;;;;;;;;;;5100389;28;20031;-87
2023/09/04 11:05:07;;;;;;;0.00;0.00;;;;;;;;;;5098758;28;20051;-82
2023/09/04 11:07:35;;;;;;;0.00;0.00;;;;;;;;;;5112249;28;20075;-80
2023/09/04 11:10:02;;;;;;;0.00;0.00;;;;;;;;;;5096700;28;20024;-81
2023/09/04 11:12:27;;;;;;;0.00;0.00;;;;;;;;;;5097290;28;20039;-79
2023/09/04 11:14:54;;;;;;;0.00;0.00;;;;;;;;;;5099197;28;20020;-82
2023/09/04 11:17:26;;;;;;;0.00;0.00;;;;;;;;;;5081910;28;20032;-83
2023/09/04 11:19:52;;;;;;;0.00;0.00;;;;;;;;;;5080742;28;20039;-82
2023/09/04 11:22:22;;;;;;;0.00;0.00;;;;;;;;;;5113529;28;20050;-82
2023/09/04 11:24:49;;;;;;;0.00;0.00;;;;;;;;;;5097029;28;20031;-82
2023/09/04 11:27:15;;;;;;;0.00;0.00;;;;;;;;;;5115879;28;20452;-84
2023/09/04 11:29:40;;;;;;;0.00;0.00;;;;;;;;;;5114380;28;20131;-84
2023/09/04 11:32:07;;;;;;;0.00;0.00;;;;;;;;;;5113737;28;20028;-81
2023/09/04 11:34:33;;;;;;;0.00;0.00;;;;;;;;;;5093630;28;20021;-81
2023/09/04 11:36:59;;;;;;;0.00;0.00;;;;;;;;;;5131608;28;20382;-79
2023/09/04 11:39:24;;;;;;;0.00;0.00;;;;;;;;;;5081841;28;20365;-81
2023/09/04 11:41:51;;;;;;;0.00;0.00;;;;;;;;;;5112793;28;20080;-79
2023/09/04 11:44:16;;;;;;;0.00;0.00;;;;;;;;;;5095454;28;20526;-79
2023/09/04 11:46:43;;;;;;;0.00;0.00;;;;;;;;;;5082238;28;20453;-80
2023/09/04 11:49:08;;;;;;;0.00;0.00;;;;;;;;;;5117605;27;20052;-83
2023/09/04 11:51:33;;;;;;;0.00;0.00;;;;;;;;;;5116582;28;20133;-80
2023/09/04 11:53:59;;;;;;;0.00;0.00;;;;;;;;;;5117598;28;20028;-81
2023/09/04 11:56:25;;;;;;;0.00;0.00;;;;;;;;;;5119086;28;20028;-81
2023/09/04 11:58:50;;;;;;;0.00;0.00;;;;;;;;;;5118508;28;20049;-80
2023/09/04 12:01:16;;;;;;;0.00;0.00;;;;;;;;;;5103621;28;20039;-81
2023/09/04 12:03:41;;;;;;;0.00;0.00;;;;;;;;;;5120007;28;20113;-80
2023/09/04 12:06:08;;;;;;;0.00;0.00;;;;;;;;;;5103546;28;20039;-81
2023/09/04 12:08:33;;;;;;;0.00;0.00;;;;;;;;;;5103883;28;20024;-80
2023/09/04 12:10:59;;;;;;;0.00;0.00;;;;;;;;;;5137726;27;20032;-81
2023/09/04 12:13:24;;;;;;;0.00;0.00;;;;;;;;;;5101579;28;20055;-82
2023/09/04 12:15:50;;;;;;;0.00;0.00;;;;;;;;;;5102196;28;20016;-82
2023/09/04 12:18:15;;;;;;;0.00;0.00;;;;;;;;;;5102289;28;20028;-82
2023/09/04 12:20:45;;;;;;;0.00;0.00;;;;;;;;;;5102540;28;20112;-82
2023/09/04 12:23:10;;;;;;;0.00;0.00;;;;;;;;;;5119214;28;20059;-82
2023/09/04 12:25:40;;;;;;;0.00;0.00;;;;;;;;;;5102068;28;20024;-81
2023/09/04 12:28:06;;;;;;;0.00;0.00;;;;;;;;;;5103402;28;20035;-82
2023/09/04 12:30:50;;;;;;;0.00;0.00;;;;;;;;;;5137194;27;20040;-82
2023/09/04 12:33:17;;;;;;;0.00;0.00;;;;;;;;;;5117742;28;20051;-82
2023/09/04 12:35:42;;;;;;;0.00;0.00;;;;;;;;;;5102868;28;20027;-82
2023/09/04 12:38:08;;;;;;;0.00;0.00;;;;;;;;;;5101984;28;20024;-81
2023/09/04 12:40:34;;;;;;;0.00;0.00;;;;;;;;;;5102117;28;20054;-82
2023/09/04 12:43:01;;;;;;;0.00;0.00;;;;;;;;;;5101196;28;20024;-84
2023/09/04 12:45:26;;;;;;;0.00;0.00;;;;;;;;;;5103178;28;20031;-83
2023/09/04 12:47:52;;;;;;;0.00;0.00;;;;;;;;;;5102442;28;20111;-82
2023/09/04 12:50:17;;;;;;;0.00;0.00;;;;;;;;;;5118635;28;20077;-81
2023/09/04 12:52:47;;;;;;;0.00;0.00;;;;;;;;;;5097729;28;20028;-82
2023/09/04 12:55:13;;;;;;;;;;;;;;;;;;5112420;28;20039;-82
2023/09/04 12:57:39;;;;;;;0.00;0.00;;;;;;;;;;5095218;28;20014;-82
2023/09/04 13:00:06;;;;;;;0.00;0.00;;;;;;;;;;5095127;28;20059;-82
2023/09/04 13:02:32;;;;;;;0.00;0.00;;;;;;;;;;5094584;28;20035;-80
2023/09/04 13:04:57;;;;;;;0.00;0.00;;;;;;;;;;5096231;28;20020;-81
2023/09/04 13:07:23;;;;;;;0.00;0.00;;;;;;;;;;5094959;28;20411;-82
2023/09/04 13:09:49;;;;;;;0.00;0.00;;;;;;;;;;5095138;28;20027;-83
2023/09/04 13:12:14;;;;;;;0.00;0.00;;;;;;;;;;5095055;28;20453;-82
2023/09/04 13:14:40;;;;;;;0.00;0.00;;;;;;;;;;5096714;28;20020;-82
2023/09/04 13:17:05;;;;;;;0.00;0.00;;;;;;;;;;5111672;28;20492;-82
2023/09/04 13:19:31;;;;;;;0.00;0.00;;;;;;;;;;5094922;28;20060;-82
2023/09/04 13:21:57;;;;;;;0.00;0.00;;;;;;;;;;5112120;28;20051;-82
2023/09/04 13:24:22;;;;;;;0.00;0.00;;;;;;;;;;5111730;28;20548;-80
2023/09/04 13:26:48;;;;;;;0.00;0.00;;;;;;;;;;5077795;28;20052;-81
2023/09/04 13:29:14;;;;;;;0.00;0.00;;;;;;;;;;5094467;28;20346;-82
2023/09/04 13:31:39;;;;;;;0.00;0.00;;;;;;;;;;5094012;28;20032;-81
2023/09/04 13:34:05;;;;;;;0.00;0.00;;;;;;;;;;5095889;28;20035;-83
2023/09/04 13:36:30;;;;;;;0.00;0.00;;;;;;;;;;5111829;28;20024;-82
2023/09/04 13:38:56;;;;;;;0.00;0.00;;;;;;;;;;5096536;28;20486;-82
2023/09/04 13:41:21;;;;;;;0.00;0.00;;;;;;;;;;5112585;28;20104;-83
2023/09/04 13:43:48;;;;;;;0.00;0.00;;;;;;;;;;5094833;28;20023;-82
2023/09/04 13:46:13;;;;;;;0.00;0.00;;;;;;;;;;5111644;28;20039;-81
2023/09/04 13:48:39;;;;;;;0.00;0.00;;;;;;;;;;5103394;28;20027;-83
2023/09/04 13:51:05;;;;;;;0.00;0.00;;;;;;;;;;5104708;28;20032;-82
2023/09/04 13:53:31;;;;;;;0.00;0.00;;;;;;;;;;5124596;28;20023;-81
2023/09/04 13:55:57;;;;;;;0.00;0.00;;;;;;;;;;5106938;28;20023;-82
2023/09/04 13:58:22;;;;;;;0.00;0.00;;;;;;;;;;5104291;28;20028;-82
2023/09/04 14:00:47;;;;;;;0.00;0.00;;;;;;;;;;5093508;28;20149;-82
2023/09/04 14:03:13;;;;;;;0.00;0.00;;;;;;;;;;5093697;28;20468;-81
2023/09/04 14:05:38;;;;;;;0.00;0.00;;;;;;;;;;5076592;28;20141;-82
2023/09/04 14:08:04;;;;;;;0.00;0.00;;;;;;;;;;5094650;28;20023;-81
2023/09/04 14:10:30;;;;;;;0.00;0.00;;;;;;;;;;5094856;28;20031;-82
2023/09/04 14:12:55;;;;;;;0.00;0.00;;;;;;;;;;5094612;28;20027;-81
2023/09/04 14:15:21;;;;;;;0.00;0.00;;;;;;;;;;5093574;28;20138;-81
2023/09/04 14:17:46;;;;;;;0.00;0.00;;;;;;;;;;5110398;28;20024;-82
2023/09/04 14:20:12;;;;;;;0.00;0.00;;;;;;;;;;5110545;28;20028;-82
2023/09/04 14:22:37;;;;;;;0.00;0.00;;;;;;;;;;5110221;28;20373;-82
2023/09/04 14:25:03;;;;;;;0.00;0.00;;;;;;;;;;5094729;28;20065;-82
2023/09/04 14:27:30;;;;;;;0.00;0.00;;;;;;;;;;5093524;28;20346;-82
2023/09/04 14:29:56;;;;;;;0.00;0.00;;;;;;;;;;5109893;28;20058;-82
2023/09/04 14:32:22;;;;;;;0.00;0.00;;;;;;;;;;5093091;28;20032;-80
2023/09/04 14:34:47;;;;;;;0.00;0.00;;;;;;;;;;5094359;28;20035;-81
2023/09/04 14:37:13;;;;;;;0.00;0.00;;;;;;;;;;5093932;28;20020;-81
2023/09/04 14:39:40;;;;;;;0.00;0.00;;;;;;;;;;5094263;28;20031;-82